sensor_id;sensor_type;location;lat;lon;timestamp;temperature;humidity
24436;DHT22;12616;52.470;13.436;2022-11-20T00:01:28;0.80;99.90
24436;DHT22;12616;52.470;13.436;2022-11-20T00:03:56;0.70;99.90
24436;DHT22;12616;52.470;13.436;2022-11-20T00:06:27;0.70;99.90
24436;DHT22;12616;52.470;13.436;2022-11-20T00:08:56;0.50;99.90
24436;DHT22;12616;52.470;13.436;2022-11-20T00:11:27;0.60;99.90
24436;DHT22;12616;52.470;13.436;2022-11-20T00:13:57;0.40;99.90
24436;DHT22;12616;52.470;13.436;2022-11-20T00:16:25;0.40;99.90
24436;DHT22;12616;52.470;13.436;2022-11-20T00:18:52;0.50;99.90
24436;DHT22;12616;52.470;13.436;2022-11-20T00:21:21;0.50;99.90
24436;DHT22;12616;52.470;13.436;2022-11-20T00:23:50;0.50;99.90
24436;DHT22;12616;52.470;13.436;2022-11-20T00:26:19;0.50;99.90
24436;DHT22;12616;52.470;13.436;2022-11-20T00:31:16;0.20;99.90
24436;DHT22;12616;52.470;13.436;2022-11-20T00:33:44;0.40;99.90
24436;DHT22;12616;52.470;13.436;2022-11-20T00:36:12;0.50;99.90
24436;DHT22;12616;52.470;13.436;2022-11-20T00:38:39;0.50;99.90
24436;DHT22;12616;52.470;13.436;2022-11-20T00:41:10;0.20;99.90
24436;DHT22;12616;52.470;13.436;2022-11-20T00:43:37;0.30;99.90
24436;DHT22;12616;52.470;13.436;2022-11-20T00:46:06;0.60;99.90
24436;DHT22;12616;52.470;13.436;2022-11-20T00:48:33;0.30;99.90
24436;DHT22;12616;52.470;13.436;2022-11-20T00:51:00;0.40;99.90
24436;DHT22;12616;52.470;13.436;2022-11-20T00:53:27;0.50;99.90
24436;DHT22;12616;52.470;13.436;2022-11-20T00:55:55;0.50;99.90
24436;DHT22;12616;52.470;13.436;2022-11-20T00:58:24;0.20;99.90
24436;DHT22;12616;52.470;13.436;2022-11-20T01:00:51;0.50;99.90
24436;DHT22;12616;52.470;13.436;2022-11-20T01:03:18;0.70;99.90
24436;DHT22;12616;52.470;13.436;2022-11-20T01:05:45;0.20;99.90
24436;DHT22;12616;52.470;13.436;2022-11-20T01:08:12;0.70;99.90
24436;DHT22;12616;52.470;13.436;2022-11-20T01:10:39;0.60;99.90
24436;DHT22;12616;52.470;13.436;2022-11-20T01:13:05;0.60;99.90
24436;DHT22;12616;52.470;13.436;2022-11-20T01:15:51;0.50;99.90
24436;DHT22;12616;52.470;13.436;2022-11-20T01:18:18;0.60;99.90
24436;DHT22;12616;52.470;13.436;2022-11-20T01:20:45;0.50;99.90
24436;DHT22;12616;52.470;13.436;2022-11-20T01:23:12;0.30;99.90
24436;DHT22;12616;52.470;13.436;2022-11-20T01:25:38;0.80;99.90
24436;DHT22;12616;52.470;13.436;2022-11-20T01:28:05;0.20;99.90
24436;DHT22;12616;52.470;13.436;2022-11-20T01:30:32;0.50;99.90
24436;DHT22;12616;52.470;13.436;2022-11-20T01:33:00;0.20;99.90
24436;DHT22;12616;52.470;13.436;2022-11-20T01:35:27;0.50;99.90
24436;DHT22;12616;52.470;13.436;2022-11-20T01:37:54;1.10;99.90
24436;DHT22;12616;52.470;13.436;2022-11-20T01:40:20;0.40;99.90
24436;DHT22;12616;52.470;13.436;2022-11-20T01:43:10;0.50;99.90
24436;DHT22;12616;52.470;13.436;2022-11-20T01:46:05;0.20;99.90
24436;DHT22;12616;52.470;13.436;2022-11-20T01:48:35;0.60;99.90
24436;DHT22;12616;52.470;13.436;2022-11-20T01:51:04;0.70;99.90
24436;DHT22;12616;52.470;13.436;2022-11-20T01:53:33;0.50;99.90
24436;DHT22;12616;52.470;13.436;2022-11-20T01:56:05;0.40;99.90
24436;DHT22;12616;52.470;13.436;2022-11-20T01:58:37;0.70;99.90
24436;DHT22;12616;52.470;13.436;2022-11-20T02:01:06;0.40;99.90
24436;DHT22;12616;52.470;13.436;2022-11-20T02:03:33;0.40;99.90
24436;DHT22;12616;52.470;13.436;2022-11-20T02:06:05;0.70;99.90
24436;DHT22;12616;52.470;13.436;2022-11-20T02:08:35;0.30;99.90
24436;DHT22;12616;52.470;13.436;2022-11-20T02:11:03;0.30;99.90
24436;DHT22;12616;52.470;13.436;2022-11-20T02:13:29;0.30;99.90
24436;DHT22;12616;52.470;13.436;2022-11-20T02:16:15;0.40;99.90
24436;DHT22;12616;52.470;13.436;2022-11-20T02:18:44;0.50;99.90
24436;DHT22;12616;52.470;13.436;2022-11-20T02:21:20;0.50;99.90
24436;DHT22;12616;52.470;13.436;2022-11-20T02:24:11;0.40;99.90
24436;DHT22;12616;52.470;13.436;2022-11-20T02:26:44;0.40;99.90
24436;DHT22;12616;52.470;13.436;2022-11-20T02:29:14;0.40;99.90
24436;DHT22;12616;52.470;13.436;2022-11-20T02:31:43;0.50;99.90
24436;DHT22;12616;52.470;13.436;2022-11-20T02:34:10;-0.70;99.90
24436;DHT22;12616;52.470;13.436;2022-11-20T02:36:39;0.10;99.90
24436;DHT22;12616;52.470;13.436;2022-11-20T02:39:07;0.20;99.90
24436;DHT22;12616;52.470;13.436;2022-11-20T02:41:37;0.20;99.90
24436;DHT22;12616;52.470;13.436;2022-11-20T02:44:04;0.10;99.90
24436;DHT22;12616;52.470;13.436;2022-11-20T02:46:32;0.30;99.90
24436;DHT22;12616;52.470;13.436;2022-11-20T02:49:00;-0.50;99.90
24436;DHT22;12616;52.470;13.436;2022-11-20T02:51:27;0.10;99.90
24436;DHT22;12616;52.470;13.436;2022-11-20T02:53:54;0.00;99.90
24436;DHT22;12616;52.470;13.436;2022-11-20T02:56:21;0.60;99.90
24436;DHT22;12616;52.470;13.436;2022-11-20T02:58:49;0.10;99.90
24436;DHT22;12616;52.470;13.436;2022-11-20T03:01:16;0.00;99.90
24436;DHT22;12616;52.470;13.436;2022-11-20T03:03:43;0.00;99.90
24436;DHT22;12616;52.470;13.436;2022-11-20T03:06:10;0.10;99.90
24436;DHT22;12616;52.470;13.436;2022-11-20T03:08:37;0.40;99.90
24436;DHT22;12616;52.470;13.436;2022-11-20T03:11:05;0.20;99.90
24436;DHT22;12616;52.470;13.436;2022-11-20T03:13:33;0.20;99.90
24436;DHT22;12616;52.470;13.436;2022-11-20T03:16:07;0.30;99.90
24436;DHT22;12616;52.470;13.436;2022-11-20T03:18:34;0.00;99.90
24436;DHT22;12616;52.470;13.436;2022-11-20T03:21:00;0.10;99.90
24436;DHT22;12616;52.470;13.436;2022-11-20T03:23:29;0.20;99.90
24436;DHT22;12616;52.470;13.436;2022-11-20T03:26:07;0.30;99.90
24436;DHT22;12616;52.470;13.436;2022-11-20T03:28:34;0.60;99.90
24436;DHT22;12616;52.470;13.436;2022-11-20T03:31:09;-0.10;99.90
24436;DHT22;12616;52.470;13.436;2022-11-20T03:33:37;0.40;99.90
24436;DHT22;12616;52.470;13.436;2022-11-20T03:36:06;0.10;99.90
24436;DHT22;12616;52.470;13.436;2022-11-20T03:38:34;0.20;99.90
24436;DHT22;12616;52.470;13.436;2022-11-20T03:41:02;0.20;99.90
24436;DHT22;12616;52.470;13.436;2022-11-20T03:43:30;0.20;99.90
24436;DHT22;12616;52.470;13.436;2022-11-20T03:45:57;0.00;99.90
24436;DHT22;12616;52.470;13.436;2022-11-20T03:48:25;0.20;99.90
24436;DHT22;12616;52.470;13.436;2022-11-20T03:50:51;0.30;99.90
24436;DHT22;12616;52.470;13.436;2022-11-20T03:53:19;0.10;99.90
24436;DHT22;12616;52.470;13.436;2022-11-20T03:55:50;2.50;99.90
24436;DHT22;12616;52.470;13.436;2022-11-20T03:58:17;0.00;99.90
24436;DHT22;12616;52.470;13.436;2022-11-20T04:00:44;0.20;99.90
24436;DHT22;12616;52.470;13.436;2022-11-20T04:05:40;0.30;99.90
24436;DHT22;12616;52.470;13.436;2022-11-20T04:08:06;0.50;99.90
24436;DHT22;12616;52.470;13.436;2022-11-20T04:10:33;0.20;99.90
24436;DHT22;12616;52.470;13.436;2022-11-20T04:13:00;0.20;99.90
24436;DHT22;12616;52.470;13.436;2022-11-20T04:15:27;-0.10;99.90
24436;DHT22;12616;52.470;13.436;2022-11-20T04:17:54;0.10;99.90
24436;DHT22;12616;52.470;13.436;2022-11-20T04:20:21;0.10;99.90
24436;DHT22;12616;52.470;13.436;2022-11-20T04:22:49;0.10;99.90
24436;DHT22;12616;52.470;13.436;2022-11-20T04:25:19;-0.10;99.90
24436;DHT22;12616;52.470;13.436;2022-11-20T04:27:46;0.00;99.90
24436;DHT22;12616;52.470;13.436;2022-11-20T04:30:15;0.10;99.90
24436;DHT22;12616;52.470;13.436;2022-11-20T04:32:42;0.20;99.90
24436;DHT22;12616;52.470;13.436;2022-11-20T04:35:09;0.30;99.90
24436;DHT22;12616;52.470;13.436;2022-11-20T04:37:38;-0.20;99.90
24436;DHT22;12616;52.470;13.436;2022-11-20T04:40:07;0.10;99.90
24436;DHT22;12616;52.470;13.436;2022-11-20T04:42:34;0.30;99.90
24436;DHT22;12616;52.470;13.436;2022-11-20T04:45:01;0.20;99.90
24436;DHT22;12616;52.470;13.436;2022-11-20T04:47:27;0.30;99.90
24436;DHT22;12616;52.470;13.436;2022-11-20T04:49:54;0.10;99.90
24436;DHT22;12616;52.470;13.436;2022-11-20T04:54:48;0.40;99.90
24436;DHT22;12616;52.470;13.436;2022-11-20T04:57:19;0.40;99.90
24436;DHT22;12616;52.470;13.436;2022-11-20T04:59:46;0.50;99.90
24436;DHT22;12616;52.470;13.436;2022-11-20T05:02:13;0.50;99.90
24436;DHT22;12616;52.470;13.436;2022-11-20T05:04:40;0.40;99.90
24436;DHT22;12616;52.470;13.436;2022-11-20T05:07:07;0.10;99.90
24436;DHT22;12616;52.470;13.436;2022-11-20T05:09:34;0.50;99.90
24436;DHT22;12616;52.470;13.436;2022-11-20T05:12:00;0.30;99.90
24436;DHT22;12616;52.470;13.436;2022-11-20T05:14:29;-0.10;99.90
24436;DHT22;12616;52.470;13.436;2022-11-20T05:16:55;0.10;99.90
24436;DHT22;12616;52.470;13.436;2022-11-20T05:19:22;0.50;99.90
24436;DHT22;12616;52.470;13.436;2022-11-20T05:21:49;-0.10;99.90
24436;DHT22;12616;52.470;13.436;2022-11-20T05:24:16;0.20;99.90
24436;DHT22;12616;52.470;13.436;2022-11-20T05:29:11;0.40;99.90
24436;DHT22;12616;52.470;13.436;2022-11-20T05:31:40;0.20;99.90
24436;DHT22;12616;52.470;13.436;2022-11-20T05:34:10;0.30;99.90
24436;DHT22;12616;52.470;13.436;2022-11-20T05:36:37;0.30;99.90
24436;DHT22;12616;52.470;13.436;2022-11-20T05:39:04;0.50;99.90
24436;DHT22;12616;52.470;13.436;2022-11-20T05:41:32;0.20;99.90
24436;DHT22;12616;52.470;13.436;2022-11-20T05:43:59;0.30;99.90
24436;DHT22;12616;52.470;13.436;2022-11-20T05:46:26;0.80;99.90
24436;DHT22;12616;52.470;13.436;2022-11-20T05:48:55;0.60;99.90
24436;DHT22;12616;52.470;13.436;2022-11-20T05:51:24;0.30;99.90
24436;DHT22;12616;52.470;13.436;2022-11-20T05:53:51;0.30;99.90
24436;DHT22;12616;52.470;13.436;2022-11-20T05:56:19;0.20;99.90
24436;DHT22;12616;52.470;13.436;2022-11-20T05:58:47;0.20;99.90
24436;DHT22;12616;52.470;13.436;2022-11-20T06:01:16;0.20;99.90
24436;DHT22;12616;52.470;13.436;2022-11-20T06:03:43;0.40;99.90
24436;DHT22;12616;52.470;13.436;2022-11-20T06:08:44;0.00;99.90
24436;DHT22;12616;52.470;13.436;2022-11-20T06:11:12;0.20;99.90
24436;DHT22;12616;52.470;13.436;2022-11-20T06:13:40;0.20;99.90
24436;DHT22;12616;52.470;13.436;2022-11-20T06:16:07;0.20;99.90
24436;DHT22;12616;52.470;13.436;2022-11-20T06:18:33;0.40;99.90
24436;DHT22;12616;52.470;13.436;2022-11-20T06:21:02;-0.10;99.90
24436;DHT22;12616;52.470;13.436;2022-11-20T06:23:30;0.20;99.90
24436;DHT22;12616;52.470;13.436;2022-11-20T06:26:00;0.40;99.90
24436;DHT22;12616;52.470;13.436;2022-11-20T06:28:27;0.30;99.90
24436;DHT22;12616;52.470;13.436;2022-11-20T06:33:21;0.20;99.90
24436;DHT22;12616;52.470;13.436;2022-11-20T06:35:48;0.20;99.90
24436;DHT22;12616;52.470;13.436;2022-11-20T06:38:14;0.20;99.90
24436;DHT22;12616;52.470;13.436;2022-11-20T06:40:42;-0.20;99.90
24436;DHT22;12616;52.470;13.436;2022-11-20T06:43:10;0.50;99.90
24436;DHT22;12616;52.470;13.436;2022-11-20T06:45:37;-0.10;99.90
24436;DHT22;12616;52.470;13.436;2022-11-20T06:48:04;0.20;99.90
24436;DHT22;12616;52.470;13.436;2022-11-20T06:50:31;0.30;99.90
24436;DHT22;12616;52.470;13.436;2022-11-20T06:53:01;0.40;99.90
24436;DHT22;12616;52.470;13.436;2022-11-20T06:55:29;0.80;99.90
24436;DHT22;12616;52.470;13.436;2022-11-20T06:57:55;-0.10;99.90
24436;DHT22;12616;52.470;13.436;2022-11-20T07:00:24;0.10;99.90
24436;DHT22;12616;52.470;13.436;2022-11-20T07:02:51;0.40;99.90
24436;DHT22;12616;52.470;13.436;2022-11-20T07:05:18;0.20;99.90
24436;DHT22;12616;52.470;13.436;2022-11-20T07:07:45;-0.10;99.90
24436;DHT22;12616;52.470;13.436;2022-11-20T07:10:15;0.30;99.90
24436;DHT22;12616;52.470;13.436;2022-11-20T07:12:41;0.10;99.90
24436;DHT22;12616;52.470;13.436;2022-11-20T07:15:09;0.10;99.90
24436;DHT22;12616;52.470;13.436;2022-11-20T07:17:37;-0.40;99.90
24436;DHT22;12616;52.470;13.436;2022-11-20T07:20:04;0.40;99.90
24436;DHT22;12616;52.470;13.436;2022-11-20T07:22:34;0.10;99.90
24436;DHT22;12616;52.470;13.436;2022-11-20T07:25:01;0.40;99.90
24436;DHT22;12616;52.470;13.436;2022-11-20T07:27:28;0.20;99.90
24436;DHT22;12616;52.470;13.436;2022-11-20T07:29:55;0.00;99.90
24436;DHT22;12616;52.470;13.436;2022-11-20T07:32:22;0.20;99.90
24436;DHT22;12616;52.470;13.436;2022-11-20T07:34:50;0.20;99.90
24436;DHT22;12616;52.470;13.436;2022-11-20T07:37:18;0.30;99.90
24436;DHT22;12616;52.470;13.436;2022-11-20T07:39:47;0.20;99.90
24436;DHT22;12616;52.470;13.436;2022-11-20T07:42:14;0.20;99.90
24436;DHT22;12616;52.470;13.436;2022-11-20T07:44:40;1.30;99.90
24436;DHT22;12616;52.470;13.436;2022-11-20T07:49:34;0.30;99.90
24436;DHT22;12616;52.470;13.436;2022-11-20T07:52:03;0.30;99.90
24436;DHT22;12616;52.470;13.436;2022-11-20T07:54:31;0.20;99.90
24436;DHT22;12616;52.470;13.436;2022-11-20T07:56:57;0.50;99.90
24436;DHT22;12616;52.470;13.436;2022-11-20T07:59:24;0.40;99.90
24436;DHT22;12616;52.470;13.436;2022-11-20T08:01:51;0.40;99.90
24436;DHT22;12616;52.470;13.436;2022-11-20T08:04:18;0.40;99.90
24436;DHT22;12616;52.470;13.436;2022-11-20T08:06:45;0.00;99.90
24436;DHT22;12616;52.470;13.436;2022-11-20T08:09:13;0.30;99.90
24436;DHT22;12616;52.470;13.436;2022-11-20T08:11:40;0.10;99.90
24436;DHT22;12616;52.470;13.436;2022-11-20T08:14:24;0.50;99.90
24436;DHT22;12616;52.470;13.436;2022-11-20T08:16:52;0.20;99.90
24436;DHT22;12616;52.470;13.436;2022-11-20T08:19:19;0.70;99.90
24436;DHT22;12616;52.470;13.436;2022-11-20T08:21:46;0.20;99.90
24436;DHT22;12616;52.470;13.436;2022-11-20T08:24:14;0.50;99.90
24436;DHT22;12616;52.470;13.436;2022-11-20T08:26:41;0.40;99.90
24436;DHT22;12616;52.470;13.436;2022-11-20T08:29:08;1.30;99.90
24436;DHT22;12616;52.470;13.436;2022-11-20T08:31:35;0.50;99.90
24436;DHT22;12616;52.470;13.436;2022-11-20T08:34:02;0.60;99.90
24436;DHT22;12616;52.470;13.436;2022-11-20T08:36:32;0.80;99.90
24436;DHT22;12616;52.470;13.436;2022-11-20T08:38:59;0.80;99.90
24436;DHT22;12616;52.470;13.436;2022-11-20T08:41:28;0.20;99.90
24436;DHT22;12616;52.470;13.436;2022-11-20T08:43:59;0.30;99.90
24436;DHT22;12616;52.470;13.436;2022-11-20T08:46:31;0.50;99.90
24436;DHT22;12616;52.470;13.436;2022-11-20T08:48:59;0.50;99.90
24436;DHT22;12616;52.470;13.436;2022-11-20T08:51:26;0.30;99.90
24436;DHT22;12616;52.470;13.436;2022-11-20T08:53:53;0.60;99.90
24436;DHT22;12616;52.470;13.436;2022-11-20T08:56:19;0.40;99.90
24436;DHT22;12616;52.470;13.436;2022-11-20T08:58:49;0.50;99.90
24436;DHT22;12616;52.470;13.436;2022-11-20T09:01:16;0.60;99.90
24436;DHT22;12616;52.470;13.436;2022-11-20T09:03:42;1.00;99.90
24436;DHT22;12616;52.470;13.436;2022-11-20T09:06:09;0.70;99.90
24436;DHT22;12616;52.470;13.436;2022-11-20T09:08:36;0.70;99.90
24436;DHT22;12616;52.470;13.436;2022-11-20T09:11:04;0.70;99.90
24436;DHT22;12616;52.470;13.436;2022-11-20T09:13:31;0.70;99.90
24436;DHT22;12616;52.470;13.436;2022-11-20T09:16:01;0.80;99.90
24436;DHT22;12616;52.470;13.436;2022-11-20T09:18:28;0.90;99.90
24436;DHT22;12616;52.470;13.436;2022-11-20T09:20:57;0.80;99.90
24436;DHT22;12616;52.470;13.436;2022-11-20T09:23:24;0.70;99.90
24436;DHT22;12616;52.470;13.436;2022-11-20T09:25:51;0.50;99.90
24436;DHT22;12616;52.470;13.436;2022-11-20T09:30:49;0.70;99.90
24436;DHT22;12616;52.470;13.436;2022-11-20T09:33:17;0.80;99.90
24436;DHT22;12616;52.470;13.436;2022-11-20T09:35:44;0.80;99.90
24436;DHT22;12616;52.470;13.436;2022-11-20T09:38:11;0.30;99.90
24436;DHT22;12616;52.470;13.436;2022-11-20T09:40:44;0.60;99.90
24436;DHT22;12616;52.470;13.436;2022-11-20T09:43:18;0.90;99.90
24436;DHT22;12616;52.470;13.436;2022-11-20T09:45:57;0.40;99.90
24436;DHT22;12616;52.470;13.436;2022-11-20T09:48:36;1.10;99.90
24436;DHT22;12616;52.470;13.436;2022-11-20T09:51:12;0.70;99.90
24436;DHT22;12616;52.470;13.436;2022-11-20T09:53:52;0.70;99.90
24436;DHT22;12616;52.470;13.436;2022-11-20T09:56:21;0.40;99.90
24436;DHT22;12616;52.470;13.436;2022-11-20T09:58:51;0.60;99.90
24436;DHT22;12616;52.470;13.436;2022-11-20T10:01:20;0.90;99.90
24436;DHT22;12616;52.470;13.436;2022-11-20T10:03:57;0.80;99.90
24436;DHT22;12616;52.470;13.436;2022-11-20T10:06:30;0.80;99.90
24436;DHT22;12616;52.470;13.436;2022-11-20T10:09:04;1.10;99.90
24436;DHT22;12616;52.470;13.436;2022-11-20T10:11:39;1.20;99.90
24436;DHT22;12616;52.470;13.436;2022-11-20T10:14:17;1.30;99.90
24436;DHT22;12616;52.470;13.436;2022-11-20T10:16:55;1.10;99.90
24436;DHT22;12616;52.470;13.436;2022-11-20T10:19:41;1.70;99.90
24436;DHT22;12616;52.470;13.436;2022-11-20T10:22:19;2.30;99.90
24436;DHT22;12616;52.470;13.436;2022-11-20T10:24:55;1.70;99.90
24436;DHT22;12616;52.470;13.436;2022-11-20T10:30:21;1.00;99.90
24436;DHT22;12616;52.470;13.436;2022-11-20T10:32:52;1.00;99.90
24436;DHT22;12616;52.470;13.436;2022-11-20T10:35:25;0.70;99.90
24436;DHT22;12616;52.470;13.436;2022-11-20T10:37:56;0.70;99.90
24436;DHT22;12616;52.470;13.436;2022-11-20T10:40:30;0.80;99.90
24436;DHT22;12616;52.470;13.436;2022-11-20T10:43:02;0.70;99.90
24436;DHT22;12616;52.470;13.436;2022-11-20T10:45:49;0.90;99.90
24436;DHT22;12616;52.470;13.436;2022-11-20T10:48:21;1.10;99.90
24436;DHT22;12616;52.470;13.436;2022-11-20T10:51:12;1.20;99.90
24436;DHT22;12616;52.470;13.436;2022-11-20T10:53:58;0.90;99.90
24436;DHT22;12616;52.470;13.436;2022-11-20T10:56:31;0.90;99.90
24436;DHT22;12616;52.470;13.436;2022-11-20T10:59:11;1.10;99.90
24436;DHT22;12616;52.470;13.436;2022-11-20T11:01:40;1.40;99.90
24436;DHT22;12616;52.470;13.436;2022-11-20T11:04:22;0.80;99.90
24436;DHT22;12616;52.470;13.436;2022-11-20T11:06:52;1.20;99.90
24436;DHT22;12616;52.470;13.436;2022-11-20T11:09:30;1.20;99.90
24436;DHT22;12616;52.470;13.436;2022-11-20T11:11:59;1.40;99.90
24436;DHT22;12616;52.470;13.436;2022-11-20T11:14:26;0.90;99.90
24436;DHT22;12616;52.470;13.436;2022-11-20T11:16:54;1.10;99.90
24436;DHT22;12616;52.470;13.436;2022-11-20T11:19:21;1.40;99.90
24436;DHT22;12616;52.470;13.436;2022-11-20T11:21:52;1.40;99.90
24436;DHT22;12616;52.470;13.436;2022-11-20T11:24:21;1.20;99.90
24436;DHT22;12616;52.470;13.436;2022-11-20T11:26:55;1.50;99.90
24436;DHT22;12616;52.470;13.436;2022-11-20T11:29:22;1.30;99.90
24436;DHT22;12616;52.470;13.436;2022-11-20T11:32:03;1.90;99.90
24436;DHT22;12616;52.470;13.436;2022-11-20T11:34:30;1.90;99.90
24436;DHT22;12616;52.470;13.436;2022-11-20T11:37:00;1.60;99.90
24436;DHT22;12616;52.470;13.436;2022-11-20T11:39:29;1.50;99.90
24436;DHT22;12616;52.470;13.436;2022-11-20T11:41:57;1.60;99.90
24436;DHT22;12616;52.470;13.436;2022-11-20T11:44:28;1.80;99.90
24436;DHT22;12616;52.470;13.436;2022-11-20T11:47:21;1.50;99.90
24436;DHT22;12616;52.470;13.436;2022-11-20T11:49:48;1.90;99.90
24436;DHT22;12616;52.470;13.436;2022-11-20T11:52:18;1.50;99.90
24436;DHT22;12616;52.470;13.436;2022-11-20T11:54:51;2.00;99.90
24436;DHT22;12616;52.470;13.436;2022-11-20T11:57:26;1.70;99.90
24436;DHT22;12616;52.470;13.436;2022-11-20T12:00:02;1.40;99.90
24436;DHT22;12616;52.470;13.436;2022-11-20T12:02:36;1.20;99.90
24436;DHT22;12616;52.470;13.436;2022-11-20T12:05:13;1.50;99.90
24436;DHT22;12616;52.470;13.436;2022-11-20T12:10:49;1.50;99.90
24436;DHT22;12616;52.470;13.436;2022-11-20T12:22:47;1.80;99.90
24436;DHT22;12616;52.470;13.436;2022-11-20T12:24:10;1.80;99.90
24436;DHT22;12616;52.470;13.436;2022-11-20T12:27:21;1.90;99.90
24436;DHT22;12616;52.470;13.436;2022-11-20T12:33:34;1.80;99.90
24436;DHT22;12616;52.470;13.436;2022-11-20T12:40:11;1.90;99.90
24436;DHT22;12616;52.470;13.436;2022-11-20T12:47:22;2.00;99.90
24436;DHT22;12616;52.470;13.436;2022-11-20T12:50:53;2.10;99.90
24436;DHT22;12616;52.470;13.436;2022-11-20T12:54:19;2.10;99.90
24436;DHT22;12616;52.470;13.436;2022-11-20T12:57:09;2.10;91.60
24436;DHT22;12616;52.470;13.436;2022-11-20T13:00:27;2.00;97.90
24436;DHT22;12616;52.470;13.436;2022-11-20T13:03:45;1.90;99.90
24436;DHT22;12616;52.470;13.436;2022-11-20T13:12:22;1.80;99.90
24436;DHT22;12616;52.470;13.436;2022-11-20T13:15:20;1.80;99.90
24436;DHT22;12616;52.470;13.436;2022-11-20T13:18:00;1.70;99.90
24436;DHT22;12616;52.470;13.436;2022-11-20T13:25:29;1.70;99.90
24436;DHT22;12616;52.470;13.436;2022-11-20T13:33:05;1.80;99.90
24436;DHT22;12616;52.470;13.436;2022-11-20T13:40:55;1.60;99.90
24436;DHT22;12616;52.470;13.436;2022-11-20T13:46:38;1.70;99.90
24436;DHT22;12616;52.470;13.436;2022-11-20T13:49:18;1.70;99.90
24436;DHT22;12616;52.470;13.436;2022-11-20T13:51:51;1.70;99.90
24436;DHT22;12616;52.470;13.436;2022-11-20T14:03:17;1.70;99.90
24436;DHT22;12616;52.470;13.436;2022-11-20T14:05:50;1.70;99.90
24436;DHT22;12616;52.470;13.436;2022-11-20T14:08:27;1.70;99.90
24436;DHT22;12616;52.470;13.436;2022-11-20T14:11:05;2.10;99.90
24436;DHT22;12616;52.470;13.436;2022-11-20T14:23:30;1.70;99.90
24436;DHT22;12616;52.470;13.436;2022-11-20T14:33:27;1.60;99.90
24436;DHT22;12616;52.470;13.436;2022-11-20T14:35:58;1.60;99.90
24436;DHT22;12616;52.470;13.436;2022-11-20T14:41:18;1.60;99.90
24436;DHT22;12616;52.470;13.436;2022-11-20T14:43:51;1.60;99.90
24436;DHT22;12616;52.470;13.436;2022-11-20T14:51:30;1.60;99.90
24436;DHT22;12616;52.470;13.436;2022-11-20T14:56:55;1.70;99.90
24436;DHT22;12616;52.470;13.436;2022-11-20T15:06:51;1.30;99.90
24436;DHT22;12616;52.470;13.436;2022-11-20T15:11:55;1.90;99.90
24436;DHT22;12616;52.470;13.436;2022-11-20T15:14:24;1.70;99.90
24436;DHT22;12616;52.470;13.436;2022-11-20T15:16:52;1.60;99.90
24436;DHT22;12616;52.470;13.436;2022-11-20T15:19:21;1.50;99.90
24436;DHT22;12616;52.470;13.436;2022-11-20T15:29:19;1.60;99.90
24436;DHT22;12616;52.470;13.436;2022-11-20T15:55:28;1.60;99.90
24436;DHT22;12616;52.470;13.436;2022-11-20T16:24:35;1.00;99.90
24436;DHT22;12616;52.470;13.436;2022-11-20T16:27:02;1.30;99.90
24436;DHT22;12616;52.470;13.436;2022-11-20T16:29:30;1.20;99.90
24436;DHT22;12616;52.470;13.436;2022-11-20T16:37:02;1.40;99.90
24436;DHT22;12616;52.470;13.436;2022-11-20T16:41:58;1.20;99.90
24436;DHT22;12616;52.470;13.436;2022-11-20T16:44:25;1.30;99.90
24436;DHT22;12616;52.470;13.436;2022-11-20T16:46:52;1.20;99.90
24436;DHT22;12616;52.470;13.436;2022-11-20T16:49:19;1.20;99.90
24436;DHT22;12616;52.470;13.436;2022-11-20T16:51:46;1.20;99.90
24436;DHT22;12616;52.470;13.436;2022-11-20T16:54:13;1.30;99.90
24436;DHT22;12616;52.470;13.436;2022-11-20T16:56:39;1.30;99.90
24436;DHT22;12616;52.470;13.436;2022-11-20T16:59:08;1.00;99.90
24436;DHT22;12616;52.470;13.436;2022-11-20T17:01:35;1.10;99.90
24436;DHT22;12616;52.470;13.436;2022-11-20T17:04:05;0.70;99.90
24436;DHT22;12616;52.470;13.436;2022-11-20T17:06:33;0.90;99.90
24436;DHT22;12616;52.470;13.436;2022-11-20T17:09:01;1.00;99.90
24436;DHT22;12616;52.470;13.436;2022-11-20T17:11:28;1.00;99.90
24436;DHT22;12616;52.470;13.436;2022-11-20T17:13:56;1.00;99.90
24436;DHT22;12616;52.470;13.436;2022-11-20T17:16:26;0.90;99.90
24436;DHT22;12616;52.470;13.436;2022-11-20T17:18:54;0.60;99.90
24436;DHT22;12616;52.470;13.436;2022-11-20T17:21:21;0.80;99.90
24436;DHT22;12616;52.470;13.436;2022-11-20T17:23:48;0.90;99.90
24436;DHT22;12616;52.470;13.436;2022-11-20T17:26:17;0.80;99.90
24436;DHT22;12616;52.470;13.436;2022-11-20T17:28:45;0.20;99.90
24436;DHT22;12616;52.470;13.436;2022-11-20T17:31:13;0.80;99.90
24436;DHT22;12616;52.470;13.436;2022-11-20T17:33:43;0.80;99.90
24436;DHT22;12616;52.470;13.436;2022-11-20T17:36:12;1.00;99.90
24436;DHT22;12616;52.470;13.436;2022-11-20T17:38:40;0.60;99.90
24436;DHT22;12616;52.470;13.436;2022-11-20T17:41:08;1.10;99.90
24436;DHT22;12616;52.470;13.436;2022-11-20T17:43:36;0.60;99.90
24436;DHT22;12616;52.470;13.436;2022-11-20T17:46:04;1.10;99.90
24436;DHT22;12616;52.470;13.436;2022-11-20T17:48:31;0.90;99.90
24436;DHT22;12616;52.470;13.436;2022-11-20T17:51:00;0.80;99.90
24436;DHT22;12616;52.470;13.436;2022-11-20T17:53:27;0.90;99.90
24436;DHT22;12616;52.470;13.436;2022-11-20T17:58:39;0.80;99.90
24436;DHT22;12616;52.470;13.436;2022-11-20T18:01:07;0.90;99.90
24436;DHT22;12616;52.470;13.436;2022-11-20T18:03:34;1.20;99.90
24436;DHT22;12616;52.470;13.436;2022-11-20T18:06:09;0.80;99.90
24436;DHT22;12616;52.470;13.436;2022-11-20T18:08:36;0.80;99.90
24436;DHT22;12616;52.470;13.436;2022-11-20T18:11:10;0.80;99.90
24436;DHT22;12616;52.470;13.436;2022-11-20T18:13:37;0.90;99.90
24436;DHT22;12616;52.470;13.436;2022-11-20T18:16:24;0.90;99.90
24436;DHT22;12616;52.470;13.436;2022-11-20T18:18:53;0.60;99.90
24436;DHT22;12616;52.470;13.436;2022-11-20T18:21:29;0.90;99.90
24436;DHT22;12616;52.470;13.436;2022-11-20T18:36:22;0.70;99.90
24436;DHT22;12616;52.470;13.436;2022-11-20T18:38:50;0.90;99.90
24436;DHT22;12616;52.470;13.436;2022-11-20T18:41:20;0.60;99.90
24436;DHT22;12616;52.470;13.436;2022-11-20T18:44:07;0.70;99.90
24436;DHT22;12616;52.470;13.436;2022-11-20T18:46:54;0.90;99.90
24436;DHT22;12616;52.470;13.436;2022-11-20T18:49:21;0.40;99.90
24436;DHT22;12616;52.470;13.436;2022-11-20T18:51:50;0.60;99.90
24436;DHT22;12616;52.470;13.436;2022-11-20T18:54:16;0.60;99.90
24436;DHT22;12616;52.470;13.436;2022-11-20T18:56:43;0.30;99.90
24436;DHT22;12616;52.470;13.436;2022-11-20T18:59:12;0.50;99.90
24436;DHT22;12616;52.470;13.436;2022-11-20T19:01:39;0.10;99.90
24436;DHT22;12616;52.470;13.436;2022-11-20T19:04:06;0.60;99.90
24436;DHT22;12616;52.470;13.436;2022-11-20T19:06:33;0.40;99.90
24436;DHT22;12616;52.470;13.436;2022-11-20T19:09:03;0.50;99.90